Data for 10/11/2018

Time Sea-Level Adjusted Pressure Absolute Pressure Temperature Relative Humidity Dew Point   
(mb) (inHg) (mb) (inHg) (C) (F) (%) (C) (F)
00:05 1019 30.09 848 25.04 -0.7 30.8 82 -3.3 26.1
00:10 1019 30.09 848 25.04 -0.7 30.7 83 -3.3 26
00:15 1019 30.09 848 25.04 -0.7 30.7 82 -3.4 25.9
00:20 1019 30.09 848 25.04 -0.8 30.6 83 -3.3 26
00:25 1019 30.09 848 25.04 -0.8 30.6 83 -3.3 26
00:30 1019 30.09 848 25.04 -0.8 30.6 83 -3.3 26.1
00:35 1019 30.09 848 25.04 -0.8 30.6 83 -3.3 26
00:40 1019 30.09 848 25.04 -0.7 30.7 83 -3.2 26.2
00:45 1019 30.09 848 25.04 -0.7 30.7 83 -3.3 26.1
00:50 1019 30.09 848 25.04 -0.8 30.6 83 -3.3 26.1
00:55 1019 30.09 848 25.04 -0.8 30.6 83 -3.3 26
01:00 1019 30.09 848 25.04 -0.8 30.6 82 -3.4 25.9
01:05 1019 30.09 848 25.04 -0.8 30.6 82 -3.5 25.7
01:10 1019 30.09 848 25.04 -0.8 30.6 82 -3.5 25.7
01:15 1019 30.09 848 25.04 -0.7 30.7 81 -3.7 25.4
01:20 1019 30.09 848 25.04 -0.7 30.7 81 -3.5 25.7
01:25 1019 30.09 848 25.04 -0.7 30.7 81 -3.5 25.7
01:30 1019 30.09 848 25.04 -0.8 30.6 82 -3.4 25.8
01:35 1019 30.09 848 25.04 -0.9 30.4 83 -3.4 25.8
01:40 1019 30.09 848 25.04 -0.9 30.3 84 -3.3 26
01:45 1019 30.09 848 25.04 -1 30.2 84 -3.3 26
01:50 1019 30.09 848 25.04 -1 30.1 85 -3.3 26
01:55 1019 30.09 848 25.04 -1.1 30.1 85 -3.3 26
02:00 1019 30.09 848 25.04 -1.1 30.1 85 -3.2 26.2
02:05 1019 30.09 848 25.04 -1.1 30.1 84 -3.4 25.9
02:10 1018 30.06 848 25.04 -1.1 30 85 -3.3 26
02:15 1018 30.06 848 25.04 -1.1 30 85 -3.3 26.1
02:20 1018 30.06 848 25.04 -1.1 30 85 -3.4 25.9
02:25 1018 30.06 848 25.04 -1.1 30.1 84 -3.4 25.8
02:30 1018 30.06 848 25.04 -1.1 30.1 84 -3.5 25.7
02:35 1018 30.06 847 25.01 -1.1 30.1 84 -3.5 25.7
02:40 1018 30.06 847 25.01 -1.1 30 84 -3.5 25.6
02:45 1018 30.06 847 25.01 -1.2 29.9 83 -3.6 25.5
02:50 1018 30.06 847 25.01 -1.1 30 83 -3.7 25.4
02:55 1018 30.06 847 25.01 -1.2 29.9 83 -3.6 25.5
03:00 1018 30.06 847 25.01 -1.2 29.8 84 -3.7 25.4
03:05 1018 30.06 847 25.01 -1.3 29.8 84 -3.7 25.4
03:10 1018 30.06 847 25.01 -1.2 29.8 83 -3.7 25.3
03:15 1018 30.06 847 25.01 -1.2 29.8 83 -3.7 25.3
03:20 1018 30.06 847 25.01 -1.2 29.8 83 -3.7 25.3
03:25 1018 30.06 847 25.01 -1.2 29.9 83 -3.8 25.2
03:30 1018 30.06 847 25.01 -1.2 29.9 82 -3.8 25.2
03:35 1018 30.06 847 25.01 -1.2 29.9 83 -3.8 25.2
03:40 1018 30.06 847 25.01 -1.2 29.8 83 -3.8 25.2
03:45 1018 30.06 847 25.01 -1.2 29.8 83 -3.7 25.3
03:50 1018 30.06 847 25.01 -1.2 29.8 83 -3.7 25.4
03:55 1018 30.06 847 25.01 -1.2 29.8 83 -3.7 25.4
04:00 1018 30.06 847 25.01 -1.2 29.8 83 -3.7 25.3
04:05 1018 30.06 847 25.01 -1.2 29.8 84 -3.7 25.4
04:10 1018 30.06 847 25.01 -1.2 29.9 83 -3.7 25.3
04:15 1018 30.06 847 25.01 -1.2 29.8 83 -3.7 25.3
04:20 1018 30.06 847 25.01 -1.2 29.8 83 -3.8 25.2
04:25 1018 30.06 847 25.01 -1.1 29.9 82 -3.8 25.1
04:30 1018 30.06 847 25.01 -1.1 30 82 -3.9 25.1
04:35 1018 30.06 847 25.01 -1 30.2 81 -3.9 25.1
04:40 1018 30.06 847 25.01 -1 30.2 81 -3.8 25.1
04:45 1018 30.06 847 25.01 -1 30.1 81 -3.8 25.1
04:50 1018 30.06 847 25.01 -1 30.2 82 -3.8 25.2
04:55 1018 30.06 847 25.01 -1 30.2 82 -3.7 25.3
05:00 1018 30.06 847 25.01 -0.9 30.3 82 -3.7 25.4
05:05 1018 30.06 847 25.01 -0.9 30.4 81 -3.7 25.4
05:10 1018 30.06 847 25.01 -0.9 30.4 81 -3.7 25.3
05:15 1018 30.06 847 25.01 -0.9 30.4 82 -3.6 25.4
05:20 1018 30.06 847 25.01 -0.8 30.5 82 -3.5 25.7
05:25 1018 30.06 847 25.01 -0.7 30.7 82 -3.5 25.8
05:30 1018 30.06 847 25.01 -0.7 30.7 82 -3.4 25.9
05:35 1018 30.06 847 25.01 -0.6 30.8 82 -3.4 26
05:40 1018 30.06 847 25.01 -0.6 30.9 83 -3.2 26.2
05:45 1018 30.06 847 25.01 -0.6 31 83 -3.1 26.4
05:50 1018 30.06 847 25.01 -0.5 31 84 -2.8 26.9
05:55 1018 30.06 847 25.01 -0.5 31.2 85 -2.7 27.1
06:00 1018 30.06 847 25.01 -0.5 31.2 83 -2.9 26.7
06:05 1018 30.06 847 25.01 -0.6 30.9 82 -3.2 26.2
06:10 1018 30.06 847 25.01 -0.7 30.7 83 -3.3 26.1
06:15 1018 30.06 847 25.01 -0.8 30.7 83 -3.2 26.2
06:20 1018 30.06 847 25.01 -0.8 30.6 83 -3.2 26.2
06:25 1018 30.06 847 25.01 -0.8 30.6 83 -3.3 26
06:30 1018 30.06 847 25.01 -0.7 30.7 84 -3.2 26.3
06:35 1018 30.06 848 25.04 -0.7 30.7 83 -3.2 26.2
06:40 1018 30.06 847 25.01 -0.8 30.6 84 -3.1 26.4
06:45 1018 30.06 848 25.04 -0.7 30.8 84 -3 26.6
06:50 1018 30.06 848 25.04 -0.7 30.8 85 -2.9 26.7
06:55 1018 30.06 848 25.04 -0.7 30.8 85 -2.8 26.9
07:00 1018 30.06 848 25.04 -0.6 30.8 86 -2.7 27.1
07:05 1018 30.06 848 25.04 -0.5 31.1 86 -2.6 27.3
07:10 1018 30.06 848 25.04 -0.4 31.3 86 -2.5 27.4
07:15 1019 30.09 848 25.04 -0.4 31.2 86 -2.5 27.4
07:20 1019 30.09 848 25.04 -0.4 31.3 86 -2.5 27.5
07:25 1019 30.09 848 25.04 -0.3 31.5 86 -2.4 27.7
07:30 1019 30.09 848 25.04 -0.2 31.7 85 -2.4 27.6
07:35 1019 30.09 848 25.04 -0.3 31.5 85 -2.5 27.5
07:40 1019 30.09 848 25.04 -0.3 31.5 85 -2.4 27.6
07:45 1019 30.09 848 25.04 -0.1 31.8 84 -2.4 27.7
07:50 1019 30.09 848 25.04 0.1 32.3 84 -2.3 27.9
07:55 1019 30.09 848 25.04 0.2 32.4 84 -2.2 28
08:00 1019 30.09 848 25.04 0.4 32.7 82 -2.3 27.9
08:05 1019 30.09 848 25.04 0.3 32.6 84 -2.1 28.2
08:10 1019 30.09 848 25.04 0.4 32.7 84 -2.1 28.3
08:15 1019 30.09 848 25.04 0.3 32.5 85 -2 28.4
08:20 1019 30.09 848 25.04 0.4 32.7 85 -1.9 28.6
08:25 1019 30.09 848 25.04 0.5 32.8 85 -1.8 28.7
08:30 1019 30.09 848 25.04 0.6 33.1 84 -1.8 28.8
08:35 1019 30.09 848 25.04 0.6 33 84 -1.9 28.6
08:40 1019 30.09 848 25.04 0.6 33.1 84 -1.9 28.6
08:45 1019 30.09 849 25.07 0.5 33 84 -1.9 28.6
08:50 1019 30.09 849 25.07 0.5 32.8 84 -1.9 28.6
08:55 1019 30.09 849 25.07 0.4 32.7 85 -1.8 28.7
09:00 1019 30.09 849 25.07 0.4 32.7 86 -1.7 28.9
09:05 1019 30.09 849 25.07 0.3 32.6 86 -1.7 28.9
09:10 1019 30.09 849 25.07 0.2 32.4 87 -1.6 29
09:15 1019 30.09 849 25.07 0.4 32.7 86 -1.6 29
09:20 1019 30.09 849 25.07 0.5 32.9 86 -1.6 29.1
09:25 1019 30.09 849 25.07 0.5 33 85 -1.7 28.9
09:30 1019 30.09 849 25.07 0.5 32.9 85 -1.7 28.9
09:35 1019 30.09 849 25.07 0.5 33 85 -1.7 29
09:40 1019 30.09 849 25.07 0.6 33 84 -1.7 28.9
09:45 1019 30.09 849 25.07 0.5 32.9 84 -1.8 28.7
09:50 1019 30.09 849 25.07 0.2 32.4 87 -1.7 28.9
09:55 1019 30.09 849 25.07 0.5 32.9 85 -1.8 28.8
10:00 1019 30.09 849 25.07 0.6 33 85 -1.7 29
10:05 1019 30.09 849 25.07 0.7 33.3 84 -1.6 29.1
10:10 1019 30.09 849 25.07 0.7 33.3 84 -1.7 28.9
10:15 1019 30.09 849 25.07 0.8 33.4 83 -1.8 28.7
10:20 1019 30.09 849 25.07 1 33.8 82 -1.7 28.9
10:25 1019 30.09 849 25.07 1.2 34.1 82 -1.6 29.1
10:30 1019 30.09 849 25.07 1.4 34.5 80 -1.6 29
10:35 1019 30.09 849 25.07 1.6 34.8 80 -1.4 29.4
10:40 1019 30.09 849 25.07 1.7 35.1 78 -1.7 28.9
10:45 1019 30.09 849 25.07 1.9 35.4 78 -1.6 29.1
10:50 1019 30.09 849 25.07 2.1 35.7 76 -1.7 29
10:55 1019 30.09 849 25.07 2.3 36.1 77 -1.3 29.6
11:00 1019 30.09 849 25.07 2.2 36 76 -1.5 29.3
11:05 1019 30.09 849 25.07 2.1 35.8 78 -1.3 29.7
11:10 1019 30.09 849 25.07 2.5 36.4 75 -1.6 29.1
11:15 1019 30.09 849 25.07 2.6 36.7 75 -1.4 29.5
11:20 1019 30.09 848 25.04 2.8 37 73 -1.6 29.2
11:25 1019 30.09 848 25.04 3 37.4 75 -1.1 30.1
11:30 1019 30.09 848 25.04 3.1 37.7 73 -1.2 29.8
11:35 1019 30.09 848 25.04 3.2 37.8 71 -1.5 29.4
11:40 1019 30.09 848 25.04 3.1 37.6 71 -1.6 29.1
11:45 1019 30.09 848 25.04 3.1 37.6 71 -1.7 28.9
11:50 1019 30.09 848 25.04 3.2 37.8 71 -1.6 29.2
11:55 1019 30.09 848 25.04 3.3 38 68 -2 28.4
12:00 1019 30.09 848 25.04 3.7 38.7 66 -2 28.4
12:05 1019 30.09 848 25.04 4.3 39.8 61 -2.4 27.6
12:10 1019 30.09 848 25.04 4.2 39.5 63 -2.3 27.9
12:15 1019 30.09 848 25.04 4.3 39.7 63 -2.1 28.2
12:20 1019 30.09 848 25.04 4 39.2 65 -1.9 28.5
12:25 1019 30.09 848 25.04 4.2 39.5 62 -2.4 27.7
12:30 1019 30.09 848 25.04 4.3 39.8 62 -2.4 27.7
12:35 1019 30.09 848 25.04 4.2 39.6 59 -3 26.5
12:40 1019 30.09 848 25.04 4.1 39.5 59 -3.1 26.4
12:45 1019 30.09 848 25.04 4.3 39.7 58 -3.4 25.9
12:50 1019 30.09 848 25.04 4.6 40.3 56 -3.4 25.8
12:55 1019 30.09 848 25.04 4.9 40.8 56 -3.1 26.4
13:00 1019 30.09 848 25.04 4.3 39.8 58 -3.2 26.2
13:05 1019 30.09 848 25.04 4.2 39.5 59 -3.1 26.4
13:10 1018 30.06 848 25.04 4.4 39.9 58 -3.1 26.5
13:15 1018 30.06 848 25.04 4.6 40.3 58 -3 26.6
13:20 1018 30.06 848 25.04 5.2 41.4 53 -3.6 25.5
13:25 1018 30.06 847 25.01 5.1 41.2 56 -3 26.6
13:30 1018 30.06 847 25.01 5.4 41.8 55 -3 26.6
13:35 1018 30.06 847 25.01 5.6 42 54 -2.9 26.8
13:40 1018 30.06 847 25.01 5.7 42.2 54 -2.9 26.9
13:45 1018 30.06 847 25.01 5.8 42.4 50 -3.8 25.2
13:50 1018 30.06 847 25.01 5.6 42.1 52 -3.4 25.9
13:55 1018 30.06 847 25.01 5.4 41.6 53 -3.6 25.6
14:00 1018 30.06 847 25.01 5.3 41.5 53 -3.5 25.6
14:05 1018 30.06 847 25.01 5.1 41.2 51 -4.1 24.6
14:10 1018 30.06 847 25.01 5.1 41.3 51 -4.1 24.7
14:15 1018 30.06 847 25.01 5 41.1 49 -4.8 23.3
14:20 1018 30.06 847 25.01 5.1 41.1 50 -4.5 23.9
14:25 1018 30.06 847 25.01 5.4 41.7 48 -4.7 23.5
14:30 1018 30.06 847 25.01 5.4 41.7 49 -4.4 24.1
14:35 1018 30.06 847 25.01 5.3 41.6 50 -4.3 24.2
14:40 1018 30.06 847 25.01 5.4 41.8 46 -5.2 22.6
14:45 1018 30.06 847 25.01 5.7 42.2 45 -5.4 22.3
14:50 1018 30.06 847 25.01 5.8 42.5 38 -7.4 18.7
14:55 1018 30.06 847 25.01 5.8 42.4 36 -8.3 17
15:00 1018 30.06 847 25.01 5.7 42.3 36 -8.3 17.1
15:05 1018 30.06 847 25.01 5.8 42.4 36 -8 17.5
15:10 1018 30.06 847 25.01 6 42.7 36 -8 17.6
15:15 1018 30.06 847 25.01 6.7 44 31 -9.2 15.4
15:20 1018 30.06 847 25.01 6.6 43.9 32 -8.9 16
15:25 1018 30.06 847 25.01 6.3 43.4 31 -9.7 14.6
15:30 1018 30.06 847 25.01 6 42.9 33 -9.2 15.5
15:35 1018 30.06 847 25.01 6 42.7 34 -8.7 16.3
15:40 1018 30.06 847 25.01 6.1 43 35 -8.3 17.1
15:45 1018 30.06 847 25.01 6.1 43 36 -8 17.6
15:50 1018 30.06 847 25.01 5.9 42.6 36 -7.9 17.7
15:55 1018 30.06 847 25.01 5.8 42.4 37 -7.7 18.2
16:00 1018 30.06 847 25.01 5.7 42.3 39 -7.3 18.9
16:05 1018 30.06 847 25.01 5.6 42.1 40 -7 19.5
16:10 1018 30.06 847 25.01 5.7 42.3 40 -6.8 19.8
16:15 1018 30.06 847 25.01 5.8 42.4 40 -6.8 19.8
16:20 1018 30.06 847 25.01 5.7 42.3 39 -7.1 19.3
16:25 1018 30.06 847 25.01 5.9 42.7 39 -7.1 19.3
16:30 1018 30.06 847 25.01 6 42.7 39 -7 19.4
16:35 1018 30.06 847 25.01 5.9 42.6 40 -6.6 20
16:40 1018 30.06 847 25.01 5.8 42.4 40 -6.9 19.5
16:45 1018 30.06 847 25.01 5.7 42.2 40 -6.8 19.8
16:50 1018 30.06 847 25.01 5.6 42.1 40 -7 19.4
16:55 1018 30.06 847 25.01 5.6 42 40 -7 19.3
17:00 1018 30.06 847 25.01 5.5 41.8 41 -6.9 19.5
17:05 1018 30.06 847 25.01 5.4 41.7 40 -7 19.4
17:10 1018 30.06 847 25.01 5.3 41.6 42 -6.7 19.9
17:15 1018 30.06 847 25.01 5.2 41.4 42 -6.5 20.3
17:20 1018 30.06 847 25.01 5.1 41.3 43 -6.5 20.3
17:25 1018 30.06 847 25.01 5.1 41.1 44 -6.2 20.8
17:30 1018 30.06 847 25.01 4.9 40.9 45 -6 21.2
17:35 1018 30.06 847 25.01 5 41 44 -6.2 20.9
17:40 1018 30.06 847 25.01 5 41.1 45 -5.9 21.3
17:45 1018 30.06 847 25.01 4.8 40.7 45 -6 21.2
17:50 1018 30.06 847 25.01 4.7 40.5 45 -6.1 21
17:55 1018 30.06 847 25.01 4.6 40.3 47 -5.9 21.4
18:00 1018 30.06 847 25.01 4.5 40.2 47 -5.8 21.5
18:05 1018 30.06 847 25.01 4.5 40 48 -5.6 21.9
18:10 1018 30.06 847 25.01 4.1 39.4 51 -5.2 22.6
18:15 1018 30.06 847 25.01 3.9 39 51 -5.4 22.2
18:20 1018 30.06 847 25.01 3.9 39.1 50 -5.6 22
18:25 1018 30.06 847 25.01 4.1 39.3 50 -5.4 22.3
18:30 1018 30.06 847 25.01 4.1 39.4 51 -5.2 22.6
18:35 1018 30.06 847 25.01 4.2 39.5 50 -5.3 22.4
18:40 1018 30.06 847 25.01 4.2 39.6 50 -5.3 22.4
18:45 1018 30.06 847 25.01 4.2 39.6 52 -4.8 23.4
18:50 1018 30.06 847 25.01 4.1 39.4 54 -4.4 24
18:55 1018 30.06 847 25.01 3.8 38.8 55 -4.5 23.9
19:00 1018 30.06 847 25.01 3.6 38.6 51 -5.7 21.7
19:05 1018 30.06 847 25.01 3.8 38.9 54 -4.5 23.9
19:10 1018 30.06 847 25.01 3.8 38.8 56 -4.3 24.2
19:15 1018 30.06 847 25.01 3.6 38.5 57 -4.1 24.6
19:20 1018 30.06 847 25.01 3.5 38.4 54 -5 23
19:25 1018 30.06 847 25.01 3.5 38.3 54 -4.9 23.2
19:30 1018 30.06 847 25.01 3.5 38.3 55 -4.8 23.4
19:35 1018 30.06 847 25.01 3.5 38.3 56 -4.4 24
19:40 1018 30.06 847 25.01 3.4 38.1 57 -4.4 24.1
19:45 1018 30.06 847 25.01 3.4 38.2 56 -4.5 23.9
19:50 1018 30.06 847 25.01 3.5 38.3 55 -4.6 23.8
19:55 1018 30.06 847 25.01 3.6 38.5 55 -4.6 23.7
20:00 1018 30.06 847 25.01 3.7 38.6 55 -4.6 23.7
20:05 1018 30.06 847 25.01 3.7 38.7 55 -4.5 24
20:10 1018 30.06 847 25.01 3.7 38.7 56 -4.3 24.2
20:15 1018 30.06 848 25.04 3.7 38.7 55 -4.4 24.1
20:20 1018 30.06 848 25.04 3.7 38.7 56 -4.3 24.3
20:25 1018 30.06 848 25.04 3.7 38.7 56 -4.2 24.5
20:30 1018 30.06 848 25.04 3.7 38.7 57 -4.1 24.6
20:35 1018 30.06 847 25.01 3.7 38.6 56 -4.2 24.4
20:40 1018 30.06 848 25.04 3.7 38.6 56 -4.2 24.5
20:45 1018 30.06 848 25.04 3.6 38.5 57 -4.2 24.5
20:50 1018 30.06 848 25.04 3.6 38.4 57 -4.2 24.4
20:55 1018 30.06 848 25.04 3.6 38.4 57 -4.2 24.5
21:00 1018 30.06 848 25.04 3.5 38.4 56 -4.3 24.2
21:05 1018 30.06 848 25.04 3.5 38.4 56 -4.5 24
21:10 1018 30.06 848 25.04 3.5 38.3 57 -4.2 24.4
21:15 1019 30.09 848 25.04 3.3 38 58 -4.2 24.4
21:20 1019 30.09 848 25.04 3.2 37.8 57 -4.5 24
21:25 1019 30.09 848 25.04 3.2 37.7 58 -4.4 24.1
21:30 1019 30.09 848 25.04 3.1 37.7 57 -4.6 23.7
21:35 1019 30.09 848 25.04 3.2 37.7 56 -4.8 23.4
21:40 1019 30.09 848 25.04 3.1 37.7 55 -5.1 22.9
21:45 1019 30.09 848 25.04 3.2 37.8 55 -5 23
21:50 1019 30.09 848 25.04 3 37.4 57 -4.7 23.5
21:55 1019 30.09 848 25.04 2.7 36.9 59 -4.5 23.9
22:00 1019 30.09 848 25.04 2.5 36.5 59 -4.6 23.6
22:05 1019 30.09 848 25.04 2.4 36.3 60 -4.7 23.6
22:10 1019 30.09 848 25.04 2.2 36 61 -4.5 23.9
22:15 1019 30.09 848 25.04 2 35.5 63 -4.4 24.1
22:20 1019 30.09 848 25.04 1.6 34.9 64 -4.6 23.7
22:25 1019 30.09 848 25.04 1.4 34.5 61 -5.2 22.6
22:30 1019 30.09 848 25.04 1.6 34.9 60 -5.3 22.4
22:35 1019 30.09 848 25.04 1.5 34.7 61 -5.2 22.7
22:40 1019 30.09 848 25.04 1.4 34.5 62 -5.1 22.8
22:45 1019 30.09 848 25.04 1.3 34.3 62 -5.2 22.7
22:50 1019 30.09 848 25.04 1.2 34.2 62 -5.4 22.3
22:55 1019 30.09 848 25.04 1.3 34.3 63 -5.1 22.8
23:00 1019 30.09 848 25.04 0.9 33.5 65 -5 23.1
23:05 1019 30.09 848 25.04 0.7 33.2 66 -5.1 22.9
23:10 1019 30.09 848 25.04 0.5 33 66 -5 22.9
23:15 1019 30.09 848 25.04 0.5 32.9 67 -4.9 23.2
23:20 1019 30.09 848 25.04 0.7 33.3 65 -5.1 22.9
23:25 1019 30.09 848 25.04 0.6 33.1 66 -5 22.9
23:30 1019 30.09 848 25.04 0.4 32.7 67 -5.1 22.8
23:35 1019 30.09 848 25.04 0.3 32.6 68 -5 23
23:40 1019 30.09 848 25.04 0.4 32.7 67 -5 22.9
23:45 1019 30.09 848 25.04 0.4 32.7 67 -5 23
23:50 1019 30.09 848 25.04 0.5 32.8 67 -5 23
23:55 1019 30.09 848 25.04 0.4 32.6 68 -4.9 23.1
24:00 1019 30.09 848 25.04 0.3 32.6 68 -4.9 23.2